Time;durP1;ratioP1;P1;durP2;ratioP2;P2;SDS_P1;SDS_P2;PMS_P1;PMS_P2;Temp;Humidity;BMP_temperature;BMP_pressure;BME280_temperature;BME280_humidity;BME280_pressure;Samples;Min_cycle;Max_cycle;Signal;HPM_P1;HPM_P2
2021/10/19 00:13:49;;;;;;;3.08;2.10;;;22.60;59.60;;;;;;31631022;28;20493;-57
2021/10/19 00:28:51;;;;;;;1.83;1.65;;;22.60;59.90;;;;;;31629795;28;20100;-58
2021/10/19 00:43:53;;;;;;;2.35;1.00;;;22.50;60.00;;;;;;31628307;28;20095;-57
2021/10/19 00:58:55;;;;;;;0.70;0.60;;;22.50;60.30;;;;;;31627524;28;20076;-57
2021/10/19 01:13:57;;;;;;;0.60;0.60;;;22.50;60.40;;;;;;31626965;28;20053;-57
2021/10/19 01:28:59;;;;;;;0.30;0.30;;;22.40;60.40;;;;;;31626072;28;20082;-57
2021/10/19 01:44:01;;;;;;;2.47;0.45;;;22.40;60.50;;;;;;31625241;28;20041;-57
2021/10/19 01:59:03;;;;;;;0.43;0.30;;;22.40;60.80;;;;;;31638379;28;20056;-58
2021/10/19 02:14:05;;;;;;;0.20;0.20;;;22.40;61.00;;;;;;31645098;28;20045;-57
2021/10/19 02:29:07;;;;;;;0.80;0.30;;;22.40;61.70;;;;;;31643442;28;20041;-57
2021/10/19 02:44:09;;;;;;;0.75;0.30;;;22.40;61.10;;;;;;31641838;28;20087;-49
2021/10/19 02:59:11;;;;;;;0.90;0.30;;;22.40;60.90;;;;;;31638772;28;20094;-58
2021/10/19 03:14:13;;;;;;;0.10;0.10;;;22.40;61.40;;;;;;31686653;28;20041;-56
2021/10/19 03:29:15;;;;;;;2.75;0.30;;;22.70;62.10;;;;;;31653688;28;20549;-57
2021/10/19 03:44:17;;;;;;;1.13;0.20;;;23.00;62.30;;;;;;31635555;28;20128;-57
2021/10/19 03:59:19;;;;;;;0.10;0.10;;;23.00;61.80;;;;;;31726966;28;20110;-44
2021/10/19 04:14:21;;;;;;;0.38;0.32;;;22.90;62.10;;;;;;31756580;28;20043;-45
2021/10/19 04:29:23;;;;;;;2.10;0.82;;;22.80;62.10;;;;;;31664939;28;20059;-53
2021/10/19 04:44:25;;;;;;;0.20;0.20;;;22.70;62.20;;;;;;31743867;28;20044;-51
2021/10/19 04:59:27;;;;;;;15.45;7.82;;;22.60;62.00;;;;;;31743363;28;20107;-56
2021/10/19 05:14:29;;;;;;;10.48;6.68;;;22.60;62.50;;;;;;31713940;28;20056;-53
2021/10/19 05:29:32;;;;;;;7.80;5.50;;;22.50;62.60;;;;;;31703372;28;20074;-55
2021/10/19 05:44:34;;;;;;;13.00;5.05;;;22.40;62.80;;;;;;31711791;28;20092;-53
2021/10/19 05:59:36;;;;;;;7.53;4.28;;;22.40;62.90;;;;;;31753351;28;20105;-55
2021/10/19 06:14:38;;;;;;;4.78;3.00;;;22.40;62.90;;;;;;31719537;28;20605;-56
2021/10/19 06:29:40;;;;;;;48.03;33.10;;;22.80;62.90;;;;;;31708513;28;20086;-46
2021/10/19 06:44:42;;;;;;;32.50;23.52;;;22.50;55.60;;;;;;31686680;28;20099;-48
2021/10/19 06:59:48;;;;;;;60.40;46.55;;;22.40;55.20;;;;;;31738007;28;20595;-55
2021/10/19 07:14:50;;;;;;;32.70;25.52;;;22.20;53.40;;;;;;31753684;28;20115;-52
2021/10/19 07:29:52;;;;;;;32.40;21.67;;;22.20;51.70;;;;;;31638327;28;20125;-53
2021/10/19 07:44:54;;;;;;;27.92;20.27;;;22.10;51.60;;;;;;31627241;28;20044;-51
2021/10/19 07:59:56;;;;;;;23.75;19.48;;;22.00;51.10;;;;;;31726966;28;20056;-49
2021/10/19 08:15:01;;;;;;;23.15;17.40;;;21.90;51.00;;;;;;31693333;28;20099;-51
2021/10/19 08:30:05;;;;;;;24.17;15.32;;;22.40;52.90;;;;;;31698005;28;20055;-51
2021/10/19 08:45:08;;;;;;;20.55;13.40;;;22.80;53.80;;;;;;31631299;28;20044;-48
2021/10/19 09:00:11;;;;;;;21.02;12.93;;;22.80;55.00;;;;;;31660325;28;20080;-49
2021/10/19 09:15:13;;;;;;;19.05;12.50;;;22.80;55.70;;;;;;31716630;28;20087;-45
2021/10/19 09:30:15;;;;;;;17.52;12.18;;;22.60;56.30;;;;;;31643462;28;20047;-46
2021/10/19 09:45:24;;;;;;;22.45;12.77;;;22.60;56.40;;;;;;31644668;28;20040;-56
2021/10/19 10:00:30;;;;;;;16.35;11.32;;;22.50;57.40;;;;;;31747051;28;20059;-45
2021/10/19 10:15:35;;;;;;;15.52;10.23;;;22.40;57.10;;;;;;31762994;28;20051;-45
2021/10/19 10:30:38;;;;;;;17.48;10.93;;;22.30;57.30;;;;;;31762990;28;20044;-46
2021/10/19 10:45:40;;;;;;;11.93;9.45;;;22.30;57.50;;;;;;31760694;28;20063;-49
2021/10/19 11:00:42;;;;;;;14.68;8.85;;;22.20;57.60;;;;;;31758962;28;20108;-46
2021/10/19 11:15:51;;;;;;;16.27;9.43;;;22.60;57.30;;;;;;31756292;28;20062;-45
2021/10/19 11:30:54;;;;;;;13.07;8.75;;;22.90;57.20;;;;;;31752464;28;20099;-44
2021/10/19 11:45:56;;;;;;;11.40;7.75;;;22.90;57.30;;;;;;31748126;28;20106;-47
2021/10/19 12:00:58;;;;;;;11.50;7.40;;;22.80;57.40;;;;;;31750384;28;20054;-50
2021/10/19 12:16:01;;;;;;;24.20;17.38;;;22.70;57.90;;;;;;31749887;28;20048;-53
2021/10/19 12:31:03;;;;;;;16.17;12.07;;;22.60;56.60;;;;;;31752346;28;20561;-57
2021/10/19 12:46:07;;;;;;;18.92;12.02;;;22.50;54.50;;;;;;31752279;28;20044;-45
2021/10/19 13:01:11;;;;;;;15.02;11.95;;;22.60;56.30;;;;;;31754011;28;20416;-50
2021/10/19 13:16:14;;;;;;;13.30;10.52;;;22.60;56.70;;;;;;31751940;28;20142;-47
2021/10/19 13:31:16;;;;;;;11.75;9.50;;;22.70;57.10;;;;;;31751165;28;20044;-59
2021/10/19 13:46:18;;;;;;;23.17;17.45;;;22.60;57.50;;;;;;31670095;28;20056;-59
2021/10/19 14:01:20;;;;;;;46.30;37.60;;;22.40;56.30;;;;;;31642662;28;20068;-58
2021/10/19 14:16:24;;;;;;;34.17;28.33;;;22.40;54.70;;;;;;31771381;28;20055;-60
2021/10/19 14:31:26;;;;;;;35.72;28.02;;;22.40;55.70;;;;;;31761758;28;20515;-60
2021/10/19 14:46:28;;;;;;;45.40;27.50;;;22.40;55.70;;;;;;31758258;28;20131;-60
2021/10/19 15:01:30;;;;;;;34.53;26.88;;;22.30;56.30;;;;;;31751524;28;20044;-59
2021/10/19 15:16:33;;;;;;;33.38;25.27;;;22.20;57.20;;;;;;31628997;28;20052;-59
2021/10/19 15:31:35;;;;;;;126.93;75.35;;;22.40;57.60;;;;;;31628385;28;20040;-59
2021/10/19 15:46:38;;;;;;;101.50;64.15;;;22.70;58.10;;;;;;31705340;28;20054;-61
2021/10/19 16:01:40;;;;;;;96.40;59.15;;;23.00;58.60;;;;;;31750558;28;20086;-62
2021/10/19 16:16:45;;;;;;;108.38;69.60;;;23.00;58.50;;;;;;31748537;28;20081;-58
2021/10/19 16:31:48;;;;;;;90.32;51.83;;;22.90;60.40;;;;;;31742195;28;20040;-59
2021/10/19 16:46:51;;;;;;;65.93;41.75;;;22.80;59.50;;;;;;31736811;28;20128;-57
2021/10/19 17:01:53;;;;;;;66.57;36.55;;;22.70;59.30;;;;;;31736395;28;20059;-50
2021/10/19 17:16:55;;;;;;;52.47;32.40;;;22.50;59.40;;;;;;31737183;28;20047;-55
2021/10/19 17:31:58;;;;;;;52.80;31.85;;;22.60;59.80;;;;;;31332039;28;10000898;-56
2021/10/19 17:47:00;;;;;;;42.67;26.05;;;22.50;59.90;;;;;;31661094;28;20081;-68
2021/10/19 18:02:02;;;;;;;46.45;27.15;;;22.50;59.40;;;;;;31766874;28;20047;-53
2021/10/19 18:17:05;;;;;;;65.95;32.83;;;22.50;60.70;;;;;;31764982;28;20044;-52
2021/10/19 18:32:07;;;;;;;53.00;25.80;;;22.40;60.90;;;;;;31713951;28;20040;-59
2021/10/19 18:47:11;;;;;;;37.33;20.42;;;22.40;61.10;;;;;;31714128;28;20580;-50
2021/10/19 19:02:13;;;;;;;37.10;21.48;;;22.60;60.50;;;;;;31636459;28;20052;-53
2021/10/19 19:17:15;;;;;;;34.88;19.42;;;22.70;60.00;;;;;;31698873;28;20054;-47
2021/10/19 19:32:17;;;;;;;30.20;16.73;;;22.70;59.80;;;;;;31726633;28;20055;-47
2021/10/19 19:47:22;;;;;;;23.90;14.90;;;22.70;59.90;;;;;;31743336;28;20090;-48
2021/10/19 20:02:25;;;;;;;24.83;15.27;;;22.70;59.90;;;;;;31739551;28;20044;-47
2021/10/19 20:17:28;;;;;;;22.85;14.05;;;22.70;59.80;;;;;;31747630;28;20044;-56
2021/10/19 20:32:30;;;;;;;36.63;23.25;;;22.70;59.90;;;;;;31650808;28;20388;-62
2021/10/19 20:47:32;;;;;;;41.25;23.67;;;22.50;60.00;;;;;;31285695;28;10000139;-65
2021/10/19 21:02:34;;;;;;;29.45;20.73;;;22.60;59.80;;;;;;31736672;28;20044;-66
2021/10/19 21:17:37;;;;;;;33.75;20.92;;;22.60;59.80;;;;;;31624449;28;20075;-65
2021/10/19 21:32:39;;;;;;;27.30;17.65;;;22.60;59.90;;;;;;31634392;28;20126;-61
2021/10/19 21:47:43;;;;;;;24.42;16.92;;;22.60;60.10;;;;;;31712055;28;20057;-65
2021/10/19 22:02:45;;;;;;;25.00;16.55;;;22.60;60.00;;;;;;31633849;28;20048;-67
2021/10/19 22:17:47;;;;;;;73.75;51.72;;;22.60;60.10;;;;;;31361937;28;9999728;-61
2021/10/19 22:32:50;;;;;;;36.22;26.73;;;22.40;59.30;;;;;;31726065;28;20107;-61
2021/10/19 22:47:52;;;;;;;35.47;16.73;;;22.50;59.90;;;;;;31669799;28;20048;-63
2021/10/19 23:02:54;;;;;;;14.57;10.55;;;22.50;60.20;;;;;;31686258;28;20070;-63
2021/10/19 23:17:57;;;;;;;7.82;6.18;;;22.50;59.90;;;;;;31669652;28;20048;-63
2021/10/19 23:33:00;;;;;;;5.65;4.60;;;22.50;59.80;;;;;;31723274;28;20068;-63
2021/10/19 23:48:02;;;;;;;3.40;2.88;;;22.40;59.90;;;;;;31689557;28;20080;-64
